Time;durP1;ratioP1;P1;durP2;ratioP2;P2;SDS_P1;SDS_P2;PMS_P1;PMS_P2;Temp;Humidity;BMP_temperature;BMP_pressure;BME280_temperature;BME280_humidity;BME280_pressure;Samples;Min_cycle;Max_cycle;Signal;HPM_P1;HPM_P2
2023/10/10 00:01:05;;;;;;;1.00;1.00;;;;;14.90;96622.00;;;;5053766;28;20199;-61
2023/10/10 00:03:37;;;;;;;5.03;1.47;;;;;14.70;96625.00;;;;5053370;28;20258;-61
2023/10/10 00:06:08;;;;;;;1.07;1.07;;;;;14.70;96637.00;;;;5053316;28;20185;-61
2023/10/10 00:08:40;;;;;;;0.90;0.90;;;;;14.60;96632.00;;;;5053918;28;20207;-60
2023/10/10 00:11:10;;;;;;;1.33;1.23;;;;;14.60;96631.00;;;;5053235;28;20262;-60
2023/10/10 00:13:42;;;;;;;1.77;1.50;;;;;14.50;96633.00;;;;5053301;28;20786;-60
2023/10/10 00:16:11;;;;;;;1.80;1.70;;;;;14.40;96635.00;;;;5053269;28;20604;-61
2023/10/10 00:18:43;;;;;;;1.80;1.70;;;;;14.40;96630.00;;;;5053114;28;20249;-60
2023/10/10 00:21:12;;;;;;;3.27;2.13;;;;;14.30;96634.00;;;;5053297;28;20216;-60
2023/10/10 00:23:42;;;;;;;1.27;1.23;;;;;14.20;96632.00;;;;5053656;28;20192;-60
2023/10/10 00:26:13;;;;;;;2.47;1.93;;;;;14.20;96619.00;;;;5053160;28;20566;-60
2023/10/10 00:28:44;;;;;;;1.00;1.00;;;;;14.20;96624.00;;;;5053371;28;20185;-60
2023/10/10 00:31:17;;;;;;;2.87;2.27;;;;;14.40;96623.00;;;;5053285;28;20555;-62
2023/10/10 00:33:45;;;;;;;4.17;1.37;;;;;14.30;96618.00;;;;5053144;28;20236;-60
2023/10/10 00:36:15;;;;;;;1.03;1.00;;;;;14.10;96615.00;;;;5053121;28;20200;-62
2023/10/10 00:38:46;;;;;;;2.23;2.00;;;;;14.00;96618.00;;;;5052907;28;20184;-62
2023/10/10 00:41:15;;;;;;;3.13;1.87;;;;;14.10;96619.00;;;;5052884;28;20232;-61
2023/10/10 00:43:44;;;;;;;6.50;1.33;;;;;14.10;96608.00;;;;5051747;28;20204;-62
2023/10/10 00:46:11;;;;;;;2.50;2.40;;;;;14.10;96611.00;;;;5053297;28;20275;-60
2023/10/10 00:48:39;;;;;;;2.43;2.20;;;;;14.10;96606.00;;;;5053385;28;20266;-61
2023/10/10 00:51:10;;;;;;;1.10;1.10;;;;;14.00;96610.00;;;;5052908;28;20223;-62
2023/10/10 00:53:40;;;;;;;2.20;1.97;;;;;14.00;96602.00;;;;5053025;28;20200;-61
2023/10/10 00:56:08;;;;;;;2.73;1.40;;;;;14.00;96600.00;;;;5052736;28;20669;-61
2023/10/10 00:58:39;;;;;;;1.57;1.50;;;;;14.00;96608.00;;;;5052934;28;20655;-61
2023/10/10 01:01:10;;;;;;;3.40;2.00;;;;;13.90;96602.00;;;;5052995;28;20220;-60
2023/10/10 01:03:41;;;;;;;1.63;1.53;;;;;13.80;96598.00;;;;5052942;28;20582;-60
2023/10/10 01:06:14;;;;;;;2.33;1.17;;;;;13.70;96600.00;;;;5051355;28;20194;-60
2023/10/10 01:08:55;;;;;;;1.73;1.63;;;;;13.70;96606.00;;;;5053132;28;20591;-60
2023/10/10 01:11:23;;;;;;;1.60;1.50;;;;;13.60;96601.00;;;;5052562;28;20278;-61
2023/10/10 01:13:53;;;;;;;7.50;1.57;;;;;13.50;96597.00;;;;5052861;28;20228;-61
2023/10/10 01:16:24;;;;;;;6.70;2.13;;;;;13.50;96607.00;;;;5052515;28;20235;-61
2023/10/10 01:18:57;;;;;;;3.07;2.23;;;;;13.50;96594.00;;;;5051782;28;20188;-61
2023/10/10 01:21:30;;;;;;;2.27;1.53;;;;;13.20;96578.00;;;;5052512;28;20219;-61
2023/10/10 01:24:03;;;;;;;2.57;2.40;;;;;13.20;96581.00;;;;5052874;28;20196;-61
2023/10/10 01:26:32;;;;;;;13.23;1.00;;;;;13.20;96576.00;;;;5053021;28;20679;-61
2023/10/10 01:29:12;;;;;;;1.37;1.37;;;;;13.20;96574.00;;;;5052491;28;20200;-61
2023/10/10 01:31:42;;;;;;;0.73;0.73;;;;;13.30;96573.00;;;;5052629;28;20231;-61
2023/10/10 01:34:10;;;;;;;2.60;1.83;;;;;13.20;96580.00;;;;5052412;28;20208;-61
2023/10/10 01:36:40;;;;;;;1.60;1.50;;;;;13.30;96577.00;;;;5052601;28;20211;-61
2023/10/10 01:39:34;;;;;;;4.57;1.50;;;;;13.30;96579.00;;;;5052655;28;20195;-62
2023/10/10 01:42:02;;;;;;;1.30;1.20;;;;;13.30;96575.00;;;;5050262;28;20262;-61
2023/10/10 01:44:29;;;;;;;1.70;1.30;;;;;13.00;96572.00;;;;5052514;28;20195;-61
2023/10/10 01:46:56;;;;;;;1.17;1.17;;;;;12.90;96569.00;;;;5052412;28;20199;-61
2023/10/10 01:49:29;;;;;;;2.63;1.53;;;;;13.00;96563.00;;;;5052956;28;20188;-61
2023/10/10 01:52:00;;;;;;;1.53;1.43;;;;;13.00;96572.00;;;;5056083;28;20291;-61
2023/10/10 01:54:34;;;;;;;1.50;1.40;;;;;13.00;96571.00;;;;5056058;28;20215;-61
2023/10/10 01:57:06;;;;;;;3.67;2.00;;;;;12.90;96569.00;;;;5056188;28;20329;-61
2023/10/10 01:59:38;;;;;;;6.53;1.87;;;;;12.90;96570.00;;;;5056097;28;20188;-61
2023/10/10 02:02:09;;;;;;;3.37;2.33;;;;;12.80;96564.00;;;;5055695;28;20235;-61
2023/10/10 02:04:39;;;;;;;1.23;1.13;;;;;12.80;96564.00;;;;5055626;28;20176;-61
2023/10/10 02:07:14;;;;;;;3.50;2.70;;;;;12.70;96577.00;;;;5056096;28;20249;-61
2023/10/10 02:09:43;;;;;;;1.27;1.20;;;;;12.70;96560.00;;;;5054806;28;20180;-61
2023/10/10 02:12:16;;;;;;;1.63;1.53;;;;;12.70;96563.00;;;;5055502;28;20262;-61
2023/10/10 02:14:43;;;;;;;1.77;1.67;;;;;12.70;96559.00;;;;5055565;28;20215;-61
2023/10/10 02:17:22;;;;;;;1.20;1.13;;;;;12.80;96562.00;;;;5053954;28;20200;-61
2023/10/10 02:19:57;;;;;;;0.97;0.93;;;;;12.70;96561.00;;;;5055611;28;20207;-61
2023/10/10 02:22:47;;;;;;;4.50;2.20;;;;;12.80;96559.00;;;;5053950;28;20311;-61
2023/10/10 02:25:38;;;;;;;2.80;1.13;;;;;12.80;96560.00;;;;5055513;28;20184;-61
2023/10/10 02:28:10;;;;;;;1.37;1.27;;;;;12.80;96565.00;;;;5053903;28;20622;-61
2023/10/10 02:30:38;;;;;;;2.17;1.97;;;;;12.90;96555.00;;;;5055456;28;20684;-61
2023/10/10 02:33:15;;;;;;;2.30;1.77;;;;;12.70;96561.00;;;;5055745;28;20219;-61
2023/10/10 02:35:56;;;;;;;2.80;1.87;;;;;12.60;96563.00;;;;5056798;28;20207;-60
2023/10/10 02:38:33;;;;;;;2.17;2.03;;;;;12.50;96565.00;;;;5056180;28;20266;-60
2023/10/10 02:43:54;;;;;;;5.40;1.87;;;;;12.50;96562.00;;;;5052379;28;20210;-60
2023/10/10 02:46:33;;;;;;;1.80;1.70;;;;;12.50;96567.00;;;;5054931;28;20185;-60
2023/10/10 02:49:09;;;;;;;1.47;1.30;;;;;12.50;96559.00;;;;5054736;28;20237;-61
2023/10/10 02:51:40;;;;;;;1.23;1.23;;;;;12.50;96560.00;;;;5054880;28;20310;-61
2023/10/10 02:54:28;;;;;;;1.30;1.27;;;;;12.50;96563.00;;;;5054706;28;20559;-61
2023/10/10 02:56:57;;;;;;;3.20;1.63;;;;;12.40;96553.00;;;;5054944;28;20208;-61
2023/10/10 02:59:31;;;;;;;2.00;1.27;;;;;12.40;96548.00;;;;5054616;28;20192;-61
2023/10/10 03:01:59;;;;;;;10.57;2.23;;;;;12.30;96550.00;;;;5054664;28;20687;-61
2023/10/10 03:07:08;;;;;;;1.10;1.10;;;;;12.10;96554.00;;;;5054748;28;20204;-62
2023/10/10 03:10:12;;;;;;;1.73;1.63;;;;;12.20;96547.00;;;;5053262;28;20639;-62
2023/10/10 03:12:30;;;;;;;1.10;1.10;;;;;12.00;96547.00;;;;5054149;28;20763;-61
2023/10/10 03:15:12;;;;;;;10.10;2.90;;;;;12.10;96547.00;;;;5054283;28;20578;-61
2023/10/10 03:17:48;;;;;;;4.10;1.30;;;;;12.20;96544.00;;;;5054195;28;20574;-61
2023/10/10 03:20:34;;;;;;;2.13;2.00;;;;;12.10;96547.00;;;;5052817;28;20196;-60
2023/10/10 03:23:18;;;;;;;2.13;1.93;;;;;12.30;96551.00;;;;5054293;28;20298;-61
2023/10/10 03:25:51;;;;;;;0.93;0.93;;;;;12.10;96544.00;;;;5054404;28;20678;-61
2023/10/10 03:28:20;;;;;;;1.10;1.07;;;;;12.00;96547.00;;;;5052668;28;20566;-61
2023/10/10 03:30:51;;;;;;;1.43;1.33;;;;;12.00;96545.00;;;;5053835;28;20192;-61
2023/10/10 03:33:29;;;;;;;2.63;1.53;;;;;11.90;96539.00;;;;5054494;28;20210;-61
2023/10/10 03:36:05;;;;;;;0.70;0.70;;;;;12.00;96539.00;;;;5052621;28;20212;-61
2023/10/10 05:23:29;;;;;;;1.53;1.10;;;;;12.00;96545.00;;;;5053946;28;20334;-60
2023/10/10 05:23:55;;;;;;;1.37;1.27;;;;;11.10;96535.00;;;;5052627;28;20206;-61
2023/10/10 05:26:22;;;;;;;6.67;1.00;;;;;11.00;96530.00;;;;5056476;28;20561;-61
2023/10/10 05:28:50;;;;;;;1.57;1.30;;;;;11.00;96528.00;;;;5056371;28;20192;-61
2023/10/10 05:31:21;;;;;;;1.00;1.00;;;;;10.90;96529.00;;;;5056246;28;20208;-61
2023/10/10 05:33:48;;;;;;;4.13;2.20;;;;;11.00;96530.00;;;;5054835;28;20195;-61
2023/10/10 05:36:18;;;;;;;1.50;1.40;;;;;10.90;96531.00;;;;5056552;28;20197;-61
2023/10/10 05:38:48;;;;;;;1.67;1.57;;;;;10.80;96524.00;;;;5056629;28;20209;-61
2023/10/10 05:41:18;;;;;;;1.37;1.30;;;;;10.80;96526.00;;;;5056017;28;20214;-61
2023/10/10 05:43:49;;;;;;;1.60;1.50;;;;;10.70;96535.00;;;;5056285;28;20192;-61
2023/10/10 05:46:17;;;;;;;1.20;1.10;;;;;10.60;96525.00;;;;5056210;28;20180;-61
2023/10/10 05:48:46;;;;;;;1.10;1.10;;;;;10.60;96531.00;;;;5056205;28;20192;-61
2023/10/10 05:51:13;;;;;;;2.00;1.90;;;;;10.60;96525.00;;;;5055778;28;20212;-62
2023/10/10 05:53:42;;;;;;;2.20;1.73;;;;;10.80;96535.00;;;;5054393;28;20542;-61
2023/10/10 05:56:17;;;;;;;2.60;2.17;;;;;10.80;96533.00;;;;5055545;28;20216;-61
2023/10/10 05:58:47;;;;;;;1.30;1.30;;;;;10.70;96535.00;;;;5055990;28;20234;-62
2023/10/10 06:01:14;;;;;;;2.00;1.67;;;;;10.60;96542.00;;;;5055793;28;20683;-61
2023/10/10 06:03:44;;;;;;;2.47;1.33;;;;;10.60;96536.00;;;;5055521;28;20188;-61
2023/10/10 06:06:13;;;;;;;1.60;1.47;;;;;10.60;96552.00;;;;5054318;28;20652;-61
2023/10/10 06:08:42;;;;;;;1.40;1.40;;;;;10.60;96545.00;;;;5056034;28;20193;-62
2023/10/10 06:11:12;;;;;;;2.77;2.37;;;;;10.70;96543.00;;;;5055387;28;20235;-61
2023/10/10 06:13:40;;;;;;;2.00;1.90;;;;;10.80;96550.00;;;;5055676;28;20258;-61
2023/10/10 06:16:07;;;;;;;1.73;1.63;;;;;10.90;96545.00;;;;5055280;28;20216;-61
2023/10/10 06:18:34;;;;;;;1.17;1.17;;;;;10.90;96548.00;;;;5055137;28;20609;-61
2023/10/10 06:21:07;;;;;;;3.40;1.47;;;;;10.90;96550.00;;;;5055726;28;20203;-61
2023/10/10 06:23:35;;;;;;;1.57;1.47;;;;;11.00;96558.00;;;;5055766;28;20569;-61
2023/10/10 06:26:06;;;;;;;2.17;1.97;;;;;11.00;96550.00;;;;5055073;28;20211;-60
2023/10/10 06:28:37;;;;;;;1.07;1.07;;;;;11.10;96553.00;;;;5055382;28;20576;-60
2023/10/10 06:31:10;;;;;;;2.03;1.87;;;;;11.10;96562.00;;;;5055560;28;20608;-60
2023/10/10 06:33:40;;;;;;;2.50;1.93;;;;;11.20;96566.00;;;;5055496;28;20172;-60
2023/10/10 06:36:32;;;;;;;4.87;2.33;;;;;11.20;96560.00;;;;5054323;28;20200;-60
2023/10/10 06:41:51;;;;;;;1.53;1.43;;;;;11.30;96563.00;;;;5055456;28;20223;-61
2023/10/10 06:44:31;;;;;;;1.73;1.63;;;;;11.40;96565.00;;;;5055317;28;20191;-61
2023/10/10 06:47:00;;;;;;;2.30;2.13;;;;;11.60;96565.00;;;;5054879;28;20181;-61
2023/10/10 06:49:43;;;;;;;2.43;2.20;;;;;11.70;96566.00;;;;5055197;28;20729;-61
2023/10/10 06:52:17;;;;;;;8.03;1.83;;;;;11.70;96570.00;;;;5055166;28;20212;-61
2023/10/10 06:54:53;;;;;;;1.37;1.27;;;;;11.80;96574.00;;;;5054799;28;20283;-61
2023/10/10 06:57:35;;;;;;;1.10;1.10;;;;;11.90;96564.00;;;;5055358;28;20573;-60
2023/10/10 07:00:17;;;;;;;1.60;1.43;;;;;11.90;96564.00;;;;5055336;28;20180;-61
2023/10/10 07:02:48;;;;;;;2.77;2.57;;;;;11.90;96560.00;;;;5050556;28;20218;-61
2023/10/10 07:05:18;;;;;;;1.47;1.37;;;;;11.90;96556.00;;;;5049956;28;20202;-63
2023/10/10 07:07:46;;;;;;;1.67;1.57;;;;;12.00;96555.00;;;;5052970;28;20589;-62
2023/10/10 07:10:25;;;;;;;2.13;1.97;;;;;12.10;96552.00;;;;5052074;28;20241;-61
2023/10/10 07:12:57;;;;;;;4.03;1.40;;;;;12.10;96554.00;;;;5050555;28;20216;-62
2023/10/10 07:15:25;;;;;;;1.57;1.47;;;;;12.20;96554.00;;;;5048478;28;20208;-62
2023/10/10 07:18:04;;;;;;;1.53;1.43;;;;;12.30;96558.00;;;;5052394;28;20204;-62
2023/10/10 07:23:20;;;;;;;4.90;2.47;;;;;12.40;96555.00;;;;5052431;28;20581;-63
2023/10/10 07:25:58;;;;;;;1.67;1.57;;;;;12.30;96561.00;;;;5053050;28;20188;-63
2023/10/10 07:28:27;;;;;;;4.13;1.93;;;;;12.30;96559.00;;;;5049185;28;20653;-63
2023/10/10 07:30:56;;;;;;;3.20;1.73;;;;;12.50;96561.00;;;;5052508;28;20231;-63
2023/10/10 07:33:29;;;;;;;5.50;2.33;;;;;12.70;96554.00;;;;5050752;28;20571;-63
2023/10/10 07:35:56;;;;;;;2.37;2.17;;;;;12.70;96558.00;;;;5052117;28;20216;-63
2023/10/10 07:38:27;;;;;;;0.70;0.70;;;;;12.70;96557.00;;;;5052082;28;20298;-63
2023/10/10 07:40:55;;;;;;;15.73;1.73;;;;;12.50;96559.00;;;;5051953;28;20736;-63
2023/10/10 07:43:26;;;;;;;1.50;1.40;;;;;12.40;96569.00;;;;5051936;28;20246;-63
2023/10/10 07:45:55;;;;;;;5.77;2.37;;;;;12.50;96566.00;;;;5052343;28;20188;-63
2023/10/10 07:48:44;;;;;;;1.10;1.10;;;;;12.60;96567.00;;;;5050090;28;20558;-63
2023/10/10 07:51:16;;;;;;;1.93;1.83;;;;;12.90;96559.00;;;;5052348;28;20231;-63
2023/10/10 07:53:44;;;;;;;5.30;1.97;;;;;12.90;96572.00;;;;5051678;28;20192;-63
2023/10/10 07:56:12;;;;;;;2.03;1.93;;;;;13.00;96579.00;;;;5052528;28;20220;-63
2023/10/10 07:58:49;;;;;;;6.03;2.37;;;;;13.10;96569.00;;;;5050531;28;20206;-63
2023/10/10 08:01:18;;;;;;;2.90;1.77;;;;;13.30;96574.00;;;;5051654;28;20290;-63
2023/10/10 08:03:47;;;;;;;1.53;1.53;;;;;13.30;96576.00;;;;5049465;28;20199;-63
2023/10/10 08:06:21;;;;;;;9.70;3.20;;;;;13.60;96572.00;;;;5052007;28;20663;-63
2023/10/10 08:08:56;;;;;;;2.90;2.27;;;;;13.80;96572.00;;;;5046921;28;20292;-63
2023/10/10 08:11:35;;;;;;;2.37;1.67;;;;;14.00;96576.00;;;;5050254;28;20219;-63
2023/10/10 08:14:06;;;;;;;1.33;1.33;;;;;14.10;96572.00;;;;5051303;28;20196;-63
2023/10/10 08:16:36;;;;;;;4.67;2.43;;;;;14.30;96575.00;;;;5051928;28;20278;-63
2023/10/10 08:19:08;;;;;;;0.83;0.83;;;;;14.40;96569.00;;;;5050624;28;20192;-63
2023/10/10 08:21:38;;;;;;;6.47;1.73;;;;;14.30;96565.00;;;;5051509;28;20302;-63
2023/10/10 08:24:07;;;;;;;2.73;2.53;;;;;14.50;96576.00;;;;5051268;28;20199;-63
2023/10/10 08:26:42;;;;;;;1.80;1.70;;;;;14.80;96571.00;;;;5051754;28;20199;-63
2023/10/10 08:29:10;;;;;;;1.20;1.20;;;;;15.10;96567.00;;;;5051533;28;20184;-63
2023/10/10 08:31:42;;;;;;;4.20;2.33;;;;;15.30;96564.00;;;;5051405;28;20216;-63
2023/10/10 08:34:09;;;;;;;1.60;1.50;;;;;15.60;96572.00;;;;5051237;28;20660;-63
2023/10/10 08:36:43;;;;;;;1.50;1.40;;;;;15.90;96571.00;;;;5051561;28;20262;-63
2023/10/10 08:39:25;;;;;;;1.70;1.60;;;;;16.10;96565.00;;;;5050783;28;20199;-63
2023/10/10 08:41:54;;;;;;;1.70;1.60;;;;;16.20;96571.00;;;;5051323;28;20253;-63
2023/10/10 08:44:23;;;;;;;3.50;1.80;;;;;16.20;96572.00;;;;5051333;28;20196;-63
2023/10/10 08:46:58;;;;;;;4.13;2.47;;;;;16.60;96566.00;;;;5051441;28;20202;-63
2023/10/10 08:49:29;;;;;;;1.33;1.33;;;;;16.60;96565.00;;;;5050877;28;20222;-63
2023/10/10 08:52:00;;;;;;;2.03;1.87;;;;;16.90;96563.00;;;;5051077;28;20265;-63
2023/10/10 08:54:29;;;;;;;1.30;1.23;;;;;17.00;96565.00;;;;5051114;28;20192;-63
2023/10/10 08:57:03;;;;;;;1.63;1.53;;;;;17.10;96563.00;;;;5051372;28;20297;-63
2023/10/10 08:59:32;;;;;;;5.30;2.47;;;;;17.20;96573.00;;;;5053921;28;20195;-63
2023/10/10 09:02:12;;;;;;;1.13;1.13;;;;;17.20;96566.00;;;;5055168;28;20216;-63
2023/10/10 09:04:40;;;;;;;1.03;1.03;;;;;17.40;96567.00;;;;5055519;28;20643;-63
2023/10/10 09:07:19;;;;;;;3.27;1.47;;;;;17.70;96562.00;;;;5055791;28;20196;-63
2023/10/10 09:09:54;;;;;;;2.30;2.10;;;;;17.70;96565.00;;;;5050822;28;20184;-63
2023/10/10 09:12:22;;;;;;;1.57;1.47;;;;;18.10;96569.00;;;;5053929;28;20706;-63
2023/10/10 09:14:50;;;;;;;1.27;1.27;;;;;18.30;96560.00;;;;5055020;28;20734;-63
2023/10/10 09:17:29;;;;;;;1.57;1.47;;;;;18.30;96560.00;;;;5054205;28;20336;-63
2023/10/10 09:19:58;;;;;;;5.33;3.27;;;;;18.50;96560.00;;;;5054556;28;20198;-63
2023/10/10 09:22:34;;;;;;;13.27;1.90;;;;;18.70;96558.00;;;;5055282;28;20216;-63
2023/10/10 09:25:18;;;;;;;2.20;1.97;;;;;18.80;96559.00;;;;5053845;28;20643;-63
2023/10/10 09:27:59;;;;;;;1.67;1.57;;;;;19.10;96554.00;;;;5054899;28;20192;-63
2023/10/10 09:30:34;;;;;;;1.40;1.30;;;;;19.40;96553.00;;;;5050073;28;20242;-63
2023/10/10 09:33:22;;;;;;;4.77;1.77;;;;;19.40;96554.00;;;;5054885;28;20215;-63
2023/10/10 09:35:53;;;;;;;3.57;1.87;;;;;19.50;96557.00;;;;5054385;28;20200;-63
2023/10/10 09:38:26;;;;;;;4.70;1.87;;;;;19.70;96557.00;;;;5054834;28;20180;-63
2023/10/10 09:41:10;;;;;;;1.50;1.40;;;;;19.70;96558.00;;;;5050904;28;20254;-63
2023/10/10 09:43:49;;;;;;;0.90;0.90;;;;;19.90;96560.00;;;;5054446;28;20589;-64
2023/10/10 09:46:25;;;;;;;2.27;1.60;;;;;20.00;96570.00;;;;5053980;28;20184;-63
2023/10/10 09:54:29;;;;;;;1.40;1.30;;;;;20.60;96569.00;;;;5054187;28;20269;-62
2023/10/10 09:56:58;;;;;;;4.10;1.40;;;;;20.60;96564.00;;;;5053918;28;20270;-63
2023/10/10 09:59:29;;;;;;;2.50;1.30;;;;;20.60;96568.00;;;;5054533;28;20196;-62
2023/10/10 10:02:04;;;;;;;2.87;2.67;;;;;20.90;96564.00;;;;5053734;28;20304;-63
2023/10/10 10:04:41;;;;;;;2.80;1.37;;;;;20.90;96562.00;;;;5051061;28;20205;-63
2023/10/10 10:07:44;;;;;;;5.47;1.87;;;;;21.10;96578.00;;;;5049616;28;20196;-62
2023/10/10 10:10:48;;;;;;;1.70;1.60;;;;;21.30;96575.00;;;;5052734;28;20656;-63
2023/10/10 10:13:37;;;;;;;1.17;1.17;;;;;21.50;96572.00;;;;5053044;28;20192;-63
2023/10/10 10:16:20;;;;;;;3.13;2.13;;;;;21.50;96579.00;;;;5053650;28;20219;-62
2023/10/10 10:18:52;;;;;;;5.97;1.40;;;;;21.70;96577.00;;;;5053636;28;20195;-62
2023/10/10 10:21:30;;;;;;;1.55;1.52;;;;;21.80;96571.00;;;;5049629;28;20239;-63
2023/10/10 10:24:15;;;;;;;1.15;1.13;;;;;22.20;96576.00;;;;5049220;28;20188;-62
2023/10/10 10:26:43;;;;;;;2.25;0.98;;;;;22.40;96568.00;;;;5053066;28;20184;-62
2023/10/10 10:29:22;;;;;;;1.63;0.98;;;;;22.40;96568.00;;;;5051840;28;20215;-62
2023/10/10 10:31:57;;;;;;;1.38;1.27;;;;;22.60;96570.00;;;;5049603;28;20292;-63
2023/10/10 10:34:31;;;;;;;2.78;2.40;;;;;22.70;96577.00;;;;5053077;28;20195;-63
2023/10/10 10:37:06;;;;;;;8.32;3.28;;;;;22.80;96573.00;;;;5053874;28;20214;-64
2023/10/10 10:39:35;;;;;;;1.50;1.17;;;;;22.90;96579.00;;;;5052690;28;20199;-64
2023/10/10 10:42:11;;;;;;;1.48;1.40;;;;;23.10;96574.00;;;;5053733;28;20212;-61
2023/10/10 10:44:44;;;;;;;4.78;2.65;;;;;23.10;96568.00;;;;5052777;28;20187;-62
2023/10/10 10:47:49;;;;;;;1.20;1.10;;;;;23.60;96577.00;;;;5053589;28;20199;-62
2023/10/10 10:50:42;;;;;;;1.38;1.33;;;;;23.70;96564.00;;;;5052076;28;20203;-62
2023/10/10 10:53:33;;;;;;;2.17;1.33;;;;;23.90;96562.00;;;;5052212;28;20235;-62
2023/10/10 10:59:11;;;;;;;1.25;1.15;;;;;23.60;96565.00;;;;5053066;28;20189;-62
2023/10/10 11:01:51;;;;;;;1.40;1.35;;;;;24.00;96561.00;;;;5052760;28;20594;-62
2023/10/10 11:04:42;;;;;;;1.65;1.27;;;;;24.10;96565.00;;;;5053038;28;20234;-62
2023/10/10 11:07:25;;;;;;;1.50;1.40;;;;;24.50;96559.00;;;;5052759;28;20188;-62
2023/10/10 11:10:06;;;;;;;10.10;1.75;;;;;24.60;96561.00;;;;5052169;28;20259;-62
2023/10/10 11:12:36;;;;;;;0.77;0.77;;;;;24.50;96557.00;;;;5052477;28;20219;-62
2023/10/10 11:15:07;;;;;;;0.90;0.90;;;;;24.60;96551.00;;;;5051912;28;20525;-61
2023/10/10 11:17:39;;;;;;;1.77;1.67;;;;;24.80;96548.00;;;;5051744;28;21368;-62
2023/10/10 11:23:12;;;;;;;1.60;1.30;;;;;25.10;96548.00;;;;5088206;28;20630;-61
2023/10/10 11:25:46;;;;;;;1.83;1.25;;;;;25.10;96546.00;;;;5088536;28;20532;-61
2023/10/10 11:28:23;;;;;;;3.15;1.35;;;;;25.30;96544.00;;;;5083927;28;20619;-62
2023/10/10 11:30:52;;;;;;;1.13;1.13;;;;;25.30;96538.00;;;;5064352;28;20187;-61
2023/10/10 11:33:46;;;;;;;2.00;1.35;;;;;25.50;96540.00;;;;5068156;28;20249;-61
2023/10/10 11:36:37;;;;;;;1.70;1.60;;;;;25.80;96532.00;;;;5066070;28;20191;-61
2023/10/10 11:39:21;;;;;;;19.70;1.23;;;;;25.60;96529.00;;;;5066764;28;20667;-61
2023/10/10 11:41:50;;;;;;;1.40;1.30;;;;;25.70;96524.00;;;;5083179;28;20230;-62
2023/10/10 11:44:21;;;;;;;5.68;2.40;;;;;25.80;96521.00;;;;5087964;28;20195;-61
2023/10/10 11:46:56;;;;;;;1.85;1.75;;;;;26.00;96525.00;;;;5071921;28;20206;-62
2023/10/10 11:49:25;;;;;;;1.45;1.35;;;;;26.00;96524.00;;;;5074980;28;20179;-62
2023/10/10 11:51:53;;;;;;;5.05;3.13;;;;;26.30;96520.00;;;;5088341;28;20207;-61
2023/10/10 11:54:25;;;;;;;1.33;1.23;;;;;26.20;96517.00;;;;5088306;28;20256;-62
2023/10/10 11:56:52;;;;;;;0.55;0.55;;;;;26.00;96523.00;;;;5084235;28;20209;-62
2023/10/10 11:59:20;;;;;;;1.92;1.80;;;;;26.30;96521.00;;;;5088459;28;20226;-62
2023/10/10 12:02:07;;;;;;;9.13;1.83;;;;;26.20;96520.00;;;;5088139;28;20226;-62
2023/10/10 12:04:37;;;;;;;0.80;0.80;;;;;26.50;96509.00;;;;5087303;28;20187;-62
2023/10/10 12:07:05;;;;;;;3.17;1.77;;;;;26.70;96504.00;;;;5084464;28;20210;-62
2023/10/10 12:09:34;;;;;;;2.30;2.15;;;;;26.90;96509.00;;;;5088200;28;20295;-67
2023/10/10 12:12:03;;;;;;;1.50;1.40;;;;;27.00;96509.00;;;;5087701;28;20215;-62
2023/10/10 12:14:31;;;;;;;3.72;2.53;;;;;27.10;96509.00;;;;5088138;28;20199;-62
2023/10/10 12:17:05;;;;;;;1.20;1.20;;;;;27.10;96497.00;;;;5087176;28;20202;-62
2023/10/10 12:19:37;;;;;;;1.65;1.55;;;;;26.90;96503.00;;;;5087540;28;20187;-62
2023/10/10 12:22:08;;;;;;;1.98;1.80;;;;;27.00;96489.00;;;;5087469;28;20257;-62
2023/10/10 12:24:39;;;;;;;1.45;1.35;;;;;27.00;96496.00;;;;5087900;28;20215;-62
2023/10/10 12:27:09;;;;;;;5.40;1.33;;;;;27.00;96490.00;;;;5087643;28;20179;-62
2023/10/10 12:29:39;;;;;;;2.10;1.63;;;;;27.10;96492.00;;;;5088138;28;20233;-62
2023/10/10 12:32:15;;;;;;;1.63;1.52;;;;;27.30;96490.00;;;;5087409;28;20758;-62
2023/10/10 12:34:45;;;;;;;2.33;1.55;;;;;27.30;96485.00;;;;5050478;28;20211;-62
2023/10/10 12:37:15;;;;;;;2.63;1.33;;;;;27.30;96488.00;;;;5053644;28;20675;-62
2023/10/10 12:39:44;;;;;;;1.70;1.60;;;;;27.30;96486.00;;;;5054659;28;20261;-62
2023/10/10 12:42:12;;;;;;;5.78;1.13;;;;;27.10;96484.00;;;;5055809;28;20222;-62
2023/10/10 12:44:39;;;;;;;1.40;1.25;;;;;27.60;96479.00;;;;5074067;28;20666;-62
2023/10/10 12:47:07;;;;;;;1.52;1.42;;;;;27.70;96479.00;;;;5073025;28;20199;-62
2023/10/10 12:49:44;;;;;;;0.65;0.65;;;;;27.90;96478.00;;;;5054101;28;20200;-62
2023/10/10 12:52:12;;;;;;;1.25;1.17;;;;;27.90;96478.00;;;;5053494;28;20211;-62
2023/10/10 12:54:41;;;;;;;1.70;1.60;;;;;28.00;96477.00;;;;5053578;28;20196;-62
2023/10/10 12:57:14;;;;;;;6.97;2.47;;;;;27.80;96479.00;;;;5052234;28;20671;-62
2023/10/10 12:59:46;;;;;;;1.48;1.38;;;;;27.90;96472.00;;;;5052212;28;20195;-62
2023/10/10 13:02:16;;;;;;;1.50;1.40;;;;;28.40;96471.00;;;;5052037;28;20272;-62
2023/10/10 13:04:46;;;;;;;1.98;1.67;;;;;28.70;96475.00;;;;5053058;28;20694;-62
2023/10/10 13:07:16;;;;;;;2.15;1.67;;;;;29.00;96473.00;;;;5053526;28;20552;-62
2023/10/10 13:09:46;;;;;;;3.70;1.00;;;;;28.60;96458.00;;;;5053351;28;20192;-62
2023/10/10 13:12:27;;;;;;;1.42;1.33;;;;;28.90;96461.00;;;;5056552;28;20212;-62
2023/10/10 13:15:16;;;;;;;2.03;1.75;;;;;28.60;96464.00;;;;5062131;28;20206;-62
2023/10/10 13:17:53;;;;;;;1.20;1.08;;;;;27.90;96467.00;;;;5073608;28;20248;-62
2023/10/10 13:20:21;;;;;;;2.08;1.17;;;;;28.20;96465.00;;;;5072210;28;20700;-62
2023/10/10 13:22:50;;;;;;;1.55;1.45;;;;;28.60;96473.00;;;;5072939;28;20310;-62
2023/10/10 13:25:19;;;;;;;1.42;1.33;;;;;28.90;96483.00;;;;5072891;28;20278;-62
2023/10/10 13:27:52;;;;;;;2.83;2.00;;;;;29.20;96473.00;;;;5071921;28;20704;-62
2023/10/10 13:30:19;;;;;;;1.05;1.05;;;;;29.20;96478.00;;;;5072908;28;20249;-62
2023/10/10 13:32:47;;;;;;;4.68;2.35;;;;;29.40;96478.00;;;;5061706;28;20725;-62
2023/10/10 13:35:14;;;;;;;2.03;1.92;;;;;29.50;96478.00;;;;5062711;28;20191;-62
2023/10/10 13:37:43;;;;;;;1.42;1.33;;;;;29.10;96476.00;;;;5062908;28;20634;-62
2023/10/10 13:40:20;;;;;;;1.92;1.30;;;;;29.20;96480.00;;;;5072803;28;20200;-62
2023/10/10 13:42:50;;;;;;;0.82;0.82;;;;;29.10;96485.00;;;;5067621;28;20334;-62
2023/10/10 13:45:20;;;;;;;2.03;1.85;;;;;29.10;96478.00;;;;5051327;28;20196;-62
2023/10/10 13:47:48;;;;;;;1.60;1.50;;;;;29.30;96470.00;;;;5063106;28;20192;-62
2023/10/10 13:53:06;;;;;;;0.95;0.95;;;;;30.40;96463.00;;;;5041876;28;20777;-62
2023/10/10 13:55:34;;;;;;;3.60;2.13;;;;;31.70;96457.00;;;;5052480;28;20196;-62
2023/10/10 13:58:07;;;;;;;3.67;2.47;;;;;32.80;96449.00;;;;5052353;28;20655;-62
2023/10/10 14:00:36;;;;;;;1.45;1.35;;;;;34.30;96445.00;;;;5052197;28;20188;-62
2023/10/10 14:03:04;;;;;;;1.13;1.13;;;;;36.00;96446.00;;;;5066440;28;20251;-62
2023/10/10 14:05:34;;;;;;;2.70;2.50;;;;;36.80;96445.00;;;;5052632;28;20257;-62
2023/10/10 14:08:03;;;;;;;1.65;1.55;;;;;38.20;96441.00;;;;5052454;28;20198;-62
2023/10/10 14:10:38;;;;;;;1.42;1.33;;;;;39.60;96450.00;;;;5064284;28;20200;-60
2023/10/10 14:13:19;;;;;;;4.22;1.50;;;;;41.00;96441.00;;;;5071892;28;20226;-62
2023/10/10 14:15:56;;;;;;;3.95;2.65;;;;;42.00;96447.00;;;;5062686;28;20267;-60
2023/10/10 14:18:25;;;;;;;3.50;1.88;;;;;42.50;96452.00;;;;5050998;28;20302;-61
2023/10/10 14:20:53;;;;;;;3.08;2.42;;;;;41.70;96454.00;;;;5067975;28;20230;-62
2023/10/10 14:23:22;;;;;;;2.70;2.50;;;;;41.10;96452.00;;;;5054993;28;20215;-62
2023/10/10 14:25:50;;;;;;;4.80;1.60;;;;;39.30;96463.00;;;;5053359;28;20544;-61
2023/10/10 14:28:20;;;;;;;1.48;1.38;;;;;38.70;96463.00;;;;5054961;28;20685;-61
2023/10/10 14:30:50;;;;;;;3.60;1.90;;;;;38.30;96461.00;;;;5051698;28;20219;-61
2023/10/10 14:33:18;;;;;;;4.25;1.75;;;;;38.80;96465.00;;;;5051503;28;20551;-61
2023/10/10 14:35:49;;;;;;;5.72;2.33;;;;;39.00;96465.00;;;;5051392;28;20219;-61
2023/10/10 14:38:17;;;;;;;3.67;2.10;;;;;38.90;96465.00;;;;5058347;28;20278;-61
2023/10/10 14:40:45;;;;;;;1.73;1.58;;;;;39.10;96473.00;;;;5069615;28;20586;-61
2023/10/10 14:43:13;;;;;;;1.65;1.55;;;;;38.90;96465.00;;;;5070541;28;20297;-62
2023/10/10 14:45:43;;;;;;;1.55;1.27;;;;;39.20;96464.00;;;;5061532;28;20837;-62
2023/10/10 14:48:18;;;;;;;3.08;1.83;;;;;39.30;96470.00;;;;5070071;28;20200;-62
2023/10/10 14:50:52;;;;;;;3.10;1.70;;;;;38.70;96469.00;;;;5070830;28;20273;-62
2023/10/10 14:53:22;;;;;;;6.07;2.00;;;;;39.20;96461.00;;;;5070428;28;20188;-61
2023/10/10 14:55:51;;;;;;;3.85;2.75;;;;;39.30;96470.00;;;;5071490;28;20203;-62